Crossfield, Canada
Current Conditions -  °F | °C
As of 5:00 AM on Sunday 23 Nov 2014 (Local Time) from CYYC Reporting Station
Overcast Overcast  
Wind Chill: 25°   Ceiling: 800
Heat Index: 25°   Visibility: 8mi
Dew Point: 21°   Wind: 3mph
Humidity: 86%   Direction: 80°E
Pressure: 29.77"   Gusts: NA
Location:  51.43°N, 114.03°W
Report Text: CYYC 231200Z 08003KT 060V130 8SM OVC008 M04/M06 A2977 RMK SC8 SNOW COVER/TRACE LOOSE SLP128
Loading
Personal Weather Stations






























Interactive Weather Map New forecast layout! Learn more

10-Day Weather Forecast

Advertisements
Track Severe Weather on mobile